Terminal Aerodrome Forecast
Issued by NWS

Home | Current Version | Previous Version | Graphics & Text | Print | Product List | Glossary On
Versions: 1 2 3 4 5 6 7 8 9 10 11 12
550
FTUS43 KICT 080529
TAFCNU
TAF
KCNU 080529Z 0806/0906 VRB03KT P6SM SKC
     FM081400 26007KT P6SM BKN100
     FM082000 26010KT P6SM SCT080=

USA.gov is the U.S. government's official web portal to all federal, state and local government web resources and services.